»·PEaware :: AAL2613 KLAX-KLAS

AAL2613 :: KLAX-KLAS

FLIGHT INFORMATION

Flight Status: Arrived
Operator:
American Airlines
More flights by this operator :: More flights under this callsign
Pilot: Cody B. (17747)
Aircraft: BOEING 737-800
(B738)
More flights by this aircraft type
Origin: KLAX Los Angeles Intl
United States
Destination: KLAS McCarran Intl
United States
More flights between these airports :: More routes between these airports
Route: OHSNN8 MISEN KEPEC6
File this flight plan on PilotEdge
Remarks:
Altitude:
(Current/Filed)
27,000ft
Speed:
(Current/Filed)
450kts
Departed: 11-Jan-18 03:37 PM
Arrived: 11-Jan-18 04:28 PM
Distance/Time
Traveled:
205nm/0:50
Distance/Time
To Go:
Arrived

Flight Plot

Page will automatically refresh every two minutes.

Flight plan parsing failed; only flown route is shown


Map Options




Map Legend


Flown Route
Filed Route
Departure Airport
Arrival Airport
Navaid (VOR, NDB)
Fix

Horizontal Profiles

Position Reports

Time Latitude Longitude Heading Altitude Ground
Speed
11-Jan-18 15:04 33.941403 -118.406378 264 122ft 0kts
11-Jan-18 15:05 33.941403 -118.406378 264 122ft 0kts
11-Jan-18 15:06 33.941403 -118.406378 264 122ft 0kts
11-Jan-18 15:07 33.941403 -118.406378 264 122ft 0kts
11-Jan-18 15:08 33.941403 -118.406378 264 122ft 0kts
11-Jan-18 15:09 33.941403 -118.406378 264 122ft 0kts
11-Jan-18 15:10 33.941403 -118.406378 264 122ft 0kts
11-Jan-18 15:11 33.941403 -118.406378 264 122ft 0kts
11-Jan-18 15:12 33.941403 -118.406378 264 122ft 0kts
11-Jan-18 15:13 33.941403 -118.406378 264 122ft 0kts
11-Jan-18 15:14 33.941403 -118.406378 264 122ft 0kts
11-Jan-18 15:15 33.941403 -118.406378 264 122ft 0kts
11-Jan-18 15:16 33.941403 -118.406378 264 122ft 0kts
11-Jan-18 15:17 33.941403 -118.406378 264 122ft 0kts
11-Jan-18 15:18 33.941403 -118.406378 264 122ft 0kts
11-Jan-18 15:19 33.941403 -118.406378 264 122ft 0kts
11-Jan-18 15:20 33.941403 -118.406378 264 122ft 0kts
11-Jan-18 15:21 33.941403 -118.406378 264 122ft 0kts
11-Jan-18 15:22 33.941403 -118.406378 264 122ft 0kts
11-Jan-18 15:23 33.941403 -118.406378 264 122ft 0kts
11-Jan-18 15:24 33.941403 -118.406378 264 122ft 0kts
11-Jan-18 15:25 33.941480 -118.405855 230 121ft 2kts
11-Jan-18 15:26 33.941796 -118.405730 172 120ft 0kts
11-Jan-18 15:27 33.941795 -118.405730 172 120ft 0kts
11-Jan-18 15:28 33.941795 -118.405730 172 120ft 0kts
11-Jan-18 15:29 33.941795 -118.405730 172 120ft 0kts
11-Jan-18 15:30 33.941795 -118.405730 172 120ft 0kts
11-Jan-18 15:31 33.941730 -118.405720 173 120ft 0kts
11-Jan-18 15:32 33.940986 -118.405602 173 122ft 7kts
11-Jan-18 15:33 33.939642 -118.405415 173 122ft 0kts
11-Jan-18 15:34 33.939369 -118.405378 173 122ft 3kts
11-Jan-18 15:35 33.938382 -118.403884 83 120ft 12kts
11-Jan-18 15:36 33.938884 -118.398955 83 114ft 17kts
11-Jan-18 15:37 33.939477 -118.393145 82 106ft 17kts
11-Jan-18 15:38 33.939986 -118.388156 82 103ft 10kts
11-Jan-18 15:39 33.940355 -118.384557 82 102ft 16kts
11-Jan-18 15:40 33.940722 -118.380927 86 99ft 0kts
11-Jan-18 15:41 33.940722 -118.380927 86 99ft 0kts
11-Jan-18 15:42 33.939971 -118.380263 213 99ft 10kts
11-Jan-18 15:43 33.938787 -118.390640 263 104ft 128kts
11-Jan-18 15:44 33.931329 -118.456666 251 2535ft 248kts
11-Jan-18 15:45 33.887911 -118.524007 232 4281ft 260kts
11-Jan-18 15:46 33.832086 -118.557759 177 8367ft 257kts
11-Jan-18 15:47 33.772370 -118.500780 123 8640ft 298kts
11-Jan-18 15:48 33.704120 -118.451397 119 8263ft 297kts
11-Jan-18 15:49 33.657617 -118.370002 114 7822ft 300kts
11-Jan-18 15:50 33.645778 -118.274631 89 9948ft 296kts
11-Jan-18 15:51 33.657186 -118.178721 46 11071ft 294kts
11-Jan-18 15:52 33.720049 -118.113793 33 14502ft 311kts
11-Jan-18 15:53 33.792836 -118.046974 32 14971ft 342kts
11-Jan-18 15:54 33.868212 -117.978995 31 14962ft 340kts
11-Jan-18 15:55 33.945636 -117.908920 31 17825ft 362kts
11-Jan-18 15:56 34.027639 -117.833821 30 21034ft 382kts
11-Jan-18 15:57 34.109102 -117.750401 43 23828ft 411kts
11-Jan-18 15:58 34.181487 -117.640902 44 26513ft 426kts
11-Jan-18 15:59 34.257499 -117.527720 44 27238ft 456kts
11-Jan-18 16:00 34.341122 -117.403002 45 27233ft 496kts
11-Jan-18 16:01 34.426822 -117.274154 45 27298ft 495kts
11-Jan-18 16:02 34.513007 -117.144850 45 27300ft 493kts
11-Jan-18 16:03 34.599820 -117.016908 44 27278ft 492kts
11-Jan-18 16:04 34.687081 -116.889122 44 27274ft 492kts
11-Jan-18 16:05 34.774388 -116.761333 44 27275ft 492kts
11-Jan-18 16:06 34.861928 -116.635419 37 27264ft 483kts
11-Jan-18 16:07 34.964094 -116.537577 30 27247ft 434kts
11-Jan-18 16:08 35.054255 -116.450524 28 27271ft 415kts
11-Jan-18 16:09 35.139511 -116.358061 38 25270ft 420kts
11-Jan-18 16:10 35.218690 -116.257216 38 24281ft 410kts
11-Jan-18 16:11 35.289373 -116.167327 36 23559ft 342kts
11-Jan-18 16:12 35.353477 -116.086322 37 21046ft 326kts
11-Jan-18 16:13 35.418654 -116.004140 39 18616ft 346kts
11-Jan-18 16:14 35.485630 -115.919515 40 16629ft 345kts
11-Jan-18 16:15 35.552538 -115.835020 40 15335ft 344kts
11-Jan-18 16:16 35.616220 -115.754619 40 14128ft 308kts
11-Jan-18 16:17 35.675686 -115.679743 40 13029ft 305kts
11-Jan-18 16:18 35.734257 -115.604903 40 13010ft 307kts
11-Jan-18 16:19 35.809183 -115.574346 359 13019ft 288kts
11-Jan-18 16:20 35.888815 -115.568600 356 13014ft 287kts
11-Jan-18 16:21 35.965509 -115.547922 37 13022ft 307kts
11-Jan-18 16:22 36.005385 -115.453475 63 11617ft 313kts
11-Jan-18 16:23 36.028737 -115.353946 91 10997ft 289kts
11-Jan-18 16:24 36.022374 -115.254860 94 9581ft 285kts
11-Jan-18 16:25 36.015685 -115.159463 92 9013ft 276kts
11-Jan-18 16:26 36.009391 -115.065589 91 7916ft 274kts
11-Jan-18 16:27 36.003938 -114.974465 90 7008ft 251kts
11-Jan-18 16:28 36.028672 -114.911490 45 6677ft 181kts
11-Jan-18 16:29 36.066686 -114.905524 326 5394ft 153kts
11-Jan-18 16:30 36.073017 -114.956404 268 4968ft 165kts
11-Jan-18 16:31 36.073751 -115.012250 268 3855ft 153kts
11-Jan-18 16:32 36.073485 -115.062968 275 3048ft 139kts
11-Jan-18 16:33 36.073723 -115.111450 271 2350ft 139kts
11-Jan-18 16:34 36.074161 -115.144640 294 2099ft 8kts
11-Jan-18 16:35 36.074172 -115.144669 294 2099ft 0kts
11-Jan-18 16:36 36.074305 -115.145021 295 2101ft 5kts
11-Jan-18 16:37 36.076962 -115.146562 0 2103ft 0kts
11-Jan-18 16:38 36.076993 -115.146561 0 2103ft 0kts
11-Jan-18 16:39 36.078166 -115.147161 350 2102ft 7kts
11-Jan-18 16:40 36.079862 -115.147230 53 2097ft 3kts
11-Jan-18 16:41 36.079923 -115.147123 55 2096ft 0kts
11-Jan-18 16:42 36.079923 -115.147123 55 2096ft 0kts
11-Jan-18 16:43 36.079923 -115.147123 55 2096ft 0kts

Navigation Log

Ident Type
Flight plan parsing failed, navigation log unavailable